ADDS METAR Data

Data at: 0744 UTC 24 Oct 2017

METAR for:KBVY (Beverly Muni, MA, US)
Text:KBVY 240653Z AUTO 14006KT 9SM CLR 16/16 A3009 RMK AO2 SLP184 T01610156
Temperature: 16.1°C ( 61°F)
Dewpoint: 15.6°C ( 60°F) [RH = 97%]
Pressure (altimeter):30.09 inches Hg (1019.0 mb) [Sea level pressure: 1018.4 mb]
Winds:from the SE (140 degrees) at 7 MPH (6 knots; 3.1 m/s)
Visibility: 9 sm ( 14 km)
Ceiling:at least 12,000 feet AGL
Clouds:sky clear below 12,000 feet AGL
QC Flag:automated observation with no human augmentation